Time;durP1;ratioP1;P1;durP2;ratioP2;P2;SDS_P1;SDS_P2;PMS_P1;PMS_P2;Temp;Humidity;BMP_temperature;BMP_pressure;BME280_temperature;BME280_humidity;BME280_pressure;Samples;Min_cycle;Max_cycle;Signal;HPM_P1;HPM_P2
2022/09/03 00:03:55;;;;;;;1999.90;999.90;;;18.60;85.30;;;;;;6735807;88;20224;-77
2022/09/03 00:14:08;;;;;;;1999.90;999.90;;;18.50;85.60;;;;;;6737741;88;20328;-77
2022/09/03 00:24:12;;;;;;;1999.90;999.90;;;18.40;85.60;;;;;;6735538;88;20222;-77
2022/09/03 00:34:30;;;;;;;1999.90;999.90;;;18.30;85.40;;;;;;6731921;88;20234;-77
2022/09/03 00:44:54;;;;;;;1999.90;999.90;;;18.10;85.90;;;;;;6696420;88;20209;-77
2022/09/03 00:55:25;;;;;;;1999.90;999.90;;;18.00;87.20;;;;;;6704610;88;20210;-78
2022/09/03 01:05:37;;;;;;;1999.90;999.90;;;18.00;88.00;;;;;;6710312;88;20206;-76
2022/09/03 01:16:12;;;;;;;1999.90;999.90;;;17.80;88.60;;;;;;6706055;88;20232;-76
2022/09/03 01:26:37;;;;;;;1999.90;999.90;;;17.60;90.00;;;;;;6719353;88;20184;-76
2022/09/03 01:36:46;;;;;;;1999.90;999.90;;;17.40;90.40;;;;;;6719230;88;20196;-76
2022/09/03 01:46:55;;;;;;;1999.90;999.90;;;17.40;90.10;;;;;;6740171;88;20607;-76
2022/09/03 01:56:58;;;;;;;1999.90;999.90;;;17.50;90.00;;;;;;6744765;88;20178;-75
2022/09/03 02:07:00;;;;;;;1999.90;999.90;;;17.60;89.50;;;;;;6761960;88;20692;-77
2022/09/03 02:17:03;;;;;;;1999.90;999.90;;;17.60;89.30;;;;;;6742836;88;20243;-77
2022/09/03 02:27:04;;;;;;;1999.90;999.90;;;17.60;89.30;;;;;;6750316;88;20304;-77
2022/09/03 02:37:14;;;;;;;1999.90;999.90;;;17.60;89.40;;;;;;6750984;88;20563;-75
2022/09/03 02:47:56;;;;;;;1999.90;999.90;;;17.60;89.60;;;;;;6744142;77;20192;-79
2022/09/03 02:57:56;;;;;;;1999.90;999.90;;;17.50;90.00;;;;;;6673377;89;20199;-78
2022/09/03 03:07:57;;;;;;;1999.90;999.90;;;17.40;90.10;;;;;;6698260;88;20221;-78
2022/09/03 03:17:58;;;;;;;1999.90;999.90;;;17.50;90.00;;;;;;6677721;88;20209;-79
2022/09/03 03:27:58;;;;;;;1999.90;999.90;;;17.50;90.20;;;;;;6667306;89;20260;-79
2022/09/03 03:37:59;;;;;;;1999.90;999.90;;;17.50;90.40;;;;;;6669686;89;20351;-79
2022/09/03 03:48:00;;;;;;;1999.90;999.90;;;17.40;90.90;;;;;;6671594;88;20216;-78
2022/09/03 03:58:00;;;;;;;1999.90;999.90;;;17.50;91.30;;;;;;6670772;89;20208;-78
2022/09/03 04:08:01;;;;;;;1999.90;999.90;;;17.40;91.50;;;;;;6670242;88;20671;-78
2022/09/03 04:18:02;;;;;;;1999.90;999.90;;;17.60;91.30;;;;;;6676526;88;20186;-78
2022/09/03 04:28:03;;;;;;;1999.90;999.90;;;17.50;91.40;;;;;;6682268;89;20201;-78
2022/09/03 04:38:04;;;;;;;1999.90;999.90;;;17.50;91.40;;;;;;6702724;88;20208;-78
2022/09/03 04:48:04;;;;;;;1999.90;999.90;;;17.30;91.80;;;;;;6670550;88;20201;-78
2022/09/03 04:58:08;;;;;;;1999.90;999.90;;;17.30;92.00;;;;;;6671755;89;20760;-78
2022/09/03 05:08:09;;;;;;;1999.90;999.90;;;17.50;92.10;;;;;;6689545;89;20289;-79
2022/09/03 05:18:09;;;;;;;1999.90;999.90;;;17.60;92.30;;;;;;6671880;88;20243;-79
2022/09/03 05:28:10;;;;;;;1999.90;999.90;;;17.60;92.10;;;;;;6676370;89;20192;-79
2022/09/03 05:38:11;;;;;;;1999.90;999.90;;;17.60;92.40;;;;;;6680057;89;22334;-79
2022/09/03 05:48:12;;;;;;;1999.90;999.90;;;17.90;91.90;;;;;;6683789;88;20213;-81
2022/09/03 05:58:14;;;;;;;1999.90;999.90;;;17.80;92.00;;;;;;6678513;89;20199;-80
2022/09/03 06:08:15;;;;;;;1999.90;999.90;;;18.00;92.10;;;;;;6672755;88;20258;-79
2022/09/03 06:18:15;;;;;;;1999.90;999.90;;;18.20;92.10;;;;;;6681222;89;20172;-79
2022/09/03 06:28:16;;;;;;;1999.90;999.90;;;18.30;92.00;;;;;;6695866;88;20217;-81
2022/09/03 06:38:20;;;;;;;1999.90;999.90;;;18.90;91.60;;;;;;6700297;88;20581;-79
2022/09/03 06:48:21;;;;;;;1999.90;999.90;;;19.30;91.00;;;;;;6671384;89;20208;-80
2022/09/03 06:58:23;;;;;;;1999.90;999.90;;;19.20;90.50;;;;;;6677101;88;20214;-80
2022/09/03 07:08:26;;;;;;;1999.90;999.90;;;19.00;90.90;;;;;;6679776;88;20191;-77
2022/09/03 07:18:27;;;;;;;1999.90;999.90;;;18.80;91.40;;;;;;6684949;88;20234;-78
2022/09/03 07:28:30;;;;;;;1999.90;999.90;;;18.60;92.00;;;;;;6675896;88;21074;-78
2022/09/03 07:38:33;;;;;;;1999.90;999.90;;;17.90;96.10;;;;;;6686617;88;20219;-79
2022/09/03 07:48:34;;;;;;;1999.90;999.90;;;16.50;99.90;;;;;;6681436;88;20217;-78
2022/09/03 07:58:36;;;;;;;1999.90;999.90;;;15.90;99.90;;;;;;6673038;88;20175;-78
2022/09/03 08:08:44;;;;;;;1999.90;999.90;;;15.70;99.90;;;;;;6666171;88;20214;-79
2022/09/03 08:18:46;;;;;;;1999.90;999.90;;;15.60;99.90;;;;;;6674421;88;20191;-79
2022/09/03 08:28:48;;;;;;;1999.90;999.90;;;15.40;99.90;;;;;;6674398;88;20201;-76
2022/09/03 08:38:53;;;;;;;1999.90;999.90;;;15.60;99.90;;;;;;6682637;88;20191;-77
2022/09/03 08:48:55;;;;;;;1999.90;999.90;;;16.10;99.90;;;;;;6669527;88;20704;-78
2022/09/03 08:58:56;;;;;;;1999.90;999.90;;;16.60;99.90;;;;;;6670274;88;20198;-78
2022/09/03 09:09:22;;;;;;;1999.90;999.90;;;17.00;99.90;;;;;;6670015;88;20212;-77
2022/09/03 09:19:44;;;;;;;1999.90;999.90;;;17.60;99.90;;;;;;6664383;88;20220;-78
2022/09/03 09:29:47;;;;;;;1999.90;999.90;;;18.00;99.90;;;;;;6669269;88;20206;-78
2022/09/03 09:39:59;;;;;;;1999.90;999.90;;;18.50;99.90;;;;;;6669448;88;20254;-78
2022/09/03 09:50:02;;;;;;;1999.90;999.90;;;19.50;99.90;;;;;;6681630;88;20234;-78
2022/09/03 10:00:16;;;;;;;1999.90;999.90;;;19.40;99.90;;;;;;6684491;88;20180;-77
2022/09/03 10:10:20;;;;;;;1999.90;999.90;;;19.50;99.90;;;;;;6673956;88;20196;-79
2022/09/03 10:20:46;;;;;;;1999.90;999.90;;;19.30;99.90;;;;;;6679004;88;21117;-78
2022/09/03 10:31:04;;;;;;;1999.90;999.90;;;19.70;99.90;;;;;;6674982;88;20285;-79
2022/09/03 10:41:32;;;;;;;1999.90;999.90;;;19.70;99.90;;;;;;6670304;88;20197;-78
2022/09/03 10:51:44;;;;;;;1999.90;999.90;;;20.20;99.90;;;;;;6667579;88;20361;-80
2022/09/03 11:02:19;;;;;;;1999.90;999.90;;;20.00;99.90;;;;;;6672602;88;20789;-77
2022/09/03 11:12:30;;;;;;;1999.90;999.90;;;20.30;99.90;;;;;;6669182;88;20227;-77
2022/09/03 11:22:31;;;;;;;1999.90;999.90;;;20.70;99.90;;;;;;6666710;88;20240;-79
2022/09/03 11:32:48;;;;;;;1999.90;999.90;;;21.10;99.90;;;;;;6679719;89;20323;-78
2022/09/03 11:42:49;;;;;;;1999.90;999.90;;;21.90;99.90;;;;;;6661946;88;20200;-78
2022/09/03 11:52:53;;;;;;;1999.90;999.90;;;22.10;99.90;;;;;;6649038;89;20240;-78
2022/09/03 12:02:55;;;;;;;;;;;22.90;99.90;;;;;;6657442;88;20233;-75
2022/09/03 12:13:23;;;;;;;1999.90;999.90;;;23.90;99.90;;;;;;6658908;88;20055;-76
2022/09/03 12:23:49;;;;;;;1999.90;999.90;;;25.40;99.90;;;;;;6663929;88;20191;-78
2022/09/03 12:33:52;;;;;;;1999.90;999.90;;;26.60;98.70;;;;;;6674545;88;20208;-79
2022/09/03 12:43:59;;;;;;;1999.90;999.90;;;26.20;98.80;;;;;;6674956;88;20204;-80
2022/09/03 12:54:01;;;;;;;1999.90;999.90;;;26.90;98.00;;;;;;6673790;88;20240;-80
2022/09/03 13:04:07;;;;;;;1999.90;999.90;;;26.70;97.80;;;;;;6681845;88;20194;-79
2022/09/03 13:14:10;;;;;;;1999.90;999.90;;;26.90;96.60;;;;;;6688220;89;21028;-79
2022/09/03 13:24:37;;;;;;;1999.90;999.90;;;27.90;95.70;;;;;;6693892;88;20220;-79
2022/09/03 13:35:03;;;;;;;1999.90;999.90;;;27.10;96.00;;;;;;6674675;88;20330;-79
2022/09/03 13:45:40;;;;;;;1999.90;999.90;;;27.90;94.90;;;;;;6682122;88;20727;-80
2022/09/03 13:56:35;;;;;;;1999.90;999.90;;;27.80;94.80;;;;;;6651855;88;20220;-80
2022/09/03 14:06:45;;;;;;;1999.90;999.90;;;28.50;94.10;;;;;;6672778;88;20257;-79
2022/09/03 14:16:55;;;;;;;1999.90;999.90;;;28.30;93.70;;;;;;6667681;88;20195;-79
2022/09/03 14:26:59;;;;;;;1999.90;999.90;;;28.70;94.20;;;;;;6671511;88;20675;-78
2022/09/03 14:37:23;;;;;;;1999.90;999.90;;;28.20;93.50;;;;;;6664731;88;20183;-77
2022/09/03 14:47:54;;;;;;;1999.90;999.90;;;29.00;92.80;;;;;;6685334;77;20198;-77
2022/09/03 14:58:26;;;;;;;1999.90;999.90;;;27.50;94.00;;;;;;6689868;87;20305;-77
2022/09/03 15:08:53;;;;;;;1999.90;999.90;;;27.40;94.50;;;;;;6687247;88;20311;-79
2022/09/03 15:19:10;;;;;;;1999.90;999.90;;;27.00;95.00;;;;;;6687664;88;20224;-78
2022/09/03 15:30:08;;;;;;;1999.90;999.90;;;26.80;95.30;;;;;;6689243;87;20206;-79
2022/09/03 15:40:30;;;;;;;1999.90;999.90;;;26.70;94.90;;;;;;6693509;88;20285;-80
2022/09/03 15:50:35;;;;;;;1999.90;999.90;;;24.40;99.90;;;;;;6706133;87;20786;-82
2022/09/03 16:00:58;;;;;;;1999.90;999.90;;;23.60;99.90;;;;;;6675549;88;20221;-76
2022/09/03 16:11:37;;;;;;;1999.90;999.90;;;21.70;99.90;;;;;;6677522;87;20187;-77
2022/09/03 16:21:50;;;;;;;1999.90;999.90;;;19.80;99.90;;;;;;6676993;88;20191;-75
2022/09/03 16:32:04;;;;;;;1999.90;999.90;;;19.40;99.90;;;;;;6671357;88;20372;-78
2022/09/03 16:42:35;;;;;;;1999.90;999.90;;;19.60;99.90;;;;;;6683494;88;20314;-78
2022/09/03 16:53:04;;;;;;;1999.90;999.90;;;19.60;99.90;;;;;;6686109;87;20203;-77
2022/09/03 17:03:23;;;;;;;1999.90;999.90;;;19.00;99.90;;;;;;6690957;87;20666;-77
2022/09/03 17:14:10;;;;;;;1999.90;999.90;;;18.70;99.90;;;;;;6691212;87;21002;-78
2022/09/03 17:24:37;;;;;;;1999.90;999.90;;;18.70;99.90;;;;;;6682325;88;20226;-77
2022/09/03 17:34:59;;;;;;;1999.90;999.90;;;18.50;99.90;;;;;;6705776;87;20195;-77
2022/09/03 17:45:12;;;;;;;1999.90;999.90;;;18.50;99.90;;;;;;6694543;87;20397;-77
2022/09/03 17:55:36;;;;;;;1999.90;999.90;;;18.50;99.90;;;;;;6687543;87;20393;-79
2022/09/03 18:06:06;;;;;;;1999.90;999.90;;;18.50;99.90;;;;;;6688563;87;20192;-78
2022/09/03 18:16:24;;;;;;;1999.90;999.90;;;18.40;99.90;;;;;;6686274;87;20195;-78
2022/09/03 20:12:19;;;;;;;1999.90;999.90;;;17.80;99.90;;;;;;6680101;89;20288;-78
2022/09/03 20:22:29;;;;;;;1999.90;999.90;;;17.80;99.90;;;;;;6679987;87;20291;-78
2022/09/03 20:32:50;;;;;;;1999.90;999.90;;;17.60;99.90;;;;;;6698248;88;20221;-78
2022/09/03 20:43:04;;;;;;;1999.90;999.90;;;17.50;99.90;;;;;;6715058;77;20332;-77
2022/09/03 20:53:14;;;;;;;1999.90;999.90;;;17.60;99.90;;;;;;6732657;88;20261;-78
2022/09/03 21:03:20;;;;;;;1999.90;999.90;;;17.60;99.90;;;;;;6750607;88;20224;-78
2022/09/03 21:13:35;;;;;;;1999.90;999.90;;;17.70;99.90;;;;;;6746748;88;20186;-78
2022/09/03 21:23:42;;;;;;;1999.90;999.90;;;17.60;99.90;;;;;;6745614;88;20214;-78
2022/09/03 21:33:48;;;;;;;1999.90;999.90;;;17.50;99.90;;;;;;6745082;88;20226;-79
2022/09/03 21:43:55;;;;;;;1999.90;999.90;;;17.50;99.90;;;;;;6745237;88;20389;-78
2022/09/03 21:54:09;;;;;;;1999.90;999.90;;;17.60;99.90;;;;;;6749605;88;20193;-79
2022/09/03 22:04:10;;;;;;;1999.90;999.90;;;17.40;99.90;;;;;;6743733;88;20208;-78
2022/09/03 22:14:15;;;;;;;1999.90;999.90;;;17.40;99.90;;;;;;6743930;88;20756;-79
2022/09/03 22:24:46;;;;;;;1999.90;999.90;;;17.30;99.90;;;;;;6736181;88;20535;-78
2022/09/03 22:35:10;;;;;;;1999.90;999.90;;;17.40;99.90;;;;;;6728777;88;20210;-76
2022/09/03 22:45:30;;;;;;;1999.90;999.90;;;17.30;99.90;;;;;;6727576;88;20188;-76
2022/09/03 22:55:32;;;;;;;1999.90;999.90;;;17.20;99.90;;;;;;6722482;88;20185;-76
2022/09/03 23:05:39;;;;;;;1999.90;999.90;;;17.30;99.90;;;;;;6732618;88;20186;-76
2022/09/03 23:15:41;;;;;;;1999.90;999.90;;;17.20;99.90;;;;;;6735235;88;20169;-76
2022/09/03 23:25:48;;;;;;;1999.90;999.90;;;17.00;99.90;;;;;;6731243;88;20212;-76
2022/09/03 23:36:23;;;;;;;1999.90;999.90;;;17.00;99.90;;;;;;6731904;88;20195;-77
2022/09/03 23:46:40;;;;;;;1999.90;999.90;;;17.00;99.90;;;;;;6733176;88;20189;-77
2022/09/03 23:57:03;;;;;;;1999.90;999.90;;;17.00;99.90;;;;;;6730697;88;20237;-77
